LOWS

Salzburg Airport

Salzburg, Austria
TAF LOWS 200515Z 2006/2106 15005KT CAVOK TXM02/2014Z TNM07/2006Z BECMG 2008/2010 35005KT 9999 FEW070 BKN100 TEMPO 2015/2106 SCT040 BKN060 BECMG 2016/2018 15004KT
Issued Valid From Valid To
Jan-20 @ 05:15 UTC
(7 hours ago)
Jan-20 @ 06:00 UTC
(6 hours ago)
Jan-21 @ 06:00 UTC
(in 18 hours)
Expired Click to View Jan-20 @ 06:00 to Jan-20 @ 08:00
TAF LOWS 200515Z 2006/2106 15005KT CAVOK TXM02/2014Z TNM07/2006Z
Wind Visibility Clouds
150° at 5 knots 10,000+ meters
  • No significant clouds
Becoming Jan-20 @ 08:00 to Jan-20 @ 16:00
BECMG 2008/2010 35005KT 9999 FEW070 BKN100
Wind Visibility Clouds
350° at 5 knots 10,000+ meters
  • Few at 7,000' AGL
  • Broken at 10,000' AGL
Temporary Jan-20 @ 15:00 to Jan-21 @ 06:00
TEMPO 2015/2106 SCT040 BKN060
Clouds
  • Scattered at 4,000' AGL
  • Broken at 6,000' AGL
Becoming Jan-20 @ 16:00 to Jan-21 @ 06:00
BECMG 2016/2018 15004KT
Wind Visibility Clouds
150° at 4 knots 10,000+ meters
  • Few at 7,000' AGL
  • Broken at 10,000' AGL
TAF LOWS 200515Z 2006/2106 15005KT CAVOK TXM02/2014Z TNM07/2006Z BECMG 2008/2010 35005KT 9999 FEW070 BKN100 TEMPO 2015/2106 SCT040 BKN060 BECMG 2016/2018 15004KT
Issued Jan-20 @ 05:15 UTC
(7 hours ago)
Valid From Jan-20 @ 06:00 UTC
(6 hours ago)
Valid To Jan-21 @ 06:00 UTC
(in 18 hours)
Jan-20 @ 06:00 - Jan-20 @ 08:00
Wind Visibility
150° at 5 knots 10,000+ meters
Clouds
  • No significant clouds
Becoming Jan-20 @ 08:00 - Jan-20 @ 16:00
Wind Visibility
350° at 5 knots 10,000+ meters
Clouds
  • Few at 7,000' AGL
  • Broken at 10,000' AGL
Temporary Jan-20 @ 15:00 - Jan-21 @ 06:00
Clouds
  • Scattered at 4,000' AGL
  • Broken at 6,000' AGL
Becoming Jan-20 @ 16:00 - Jan-21 @ 06:00
Wind Visibility
150° at 4 knots 10,000+ meters
Clouds
  • Few at 7,000' AGL
  • Broken at 10,000' AGL